createdAt,value
2019-04-30T00:00:38.179Z,0.00
2019-04-30T00:01:36.156Z,0.00
2019-04-30T00:02:39.731Z,0.00
2019-04-30T00:03:35.315Z,0.00
2019-04-30T00:04:40.147Z,0.00
2019-04-30T00:05:35.258Z,0.00
2019-04-30T00:06:39.205Z,0.00
2019-04-30T00:07:35.699Z,0.00
2019-04-30T00:08:35.441Z,0.00
2019-04-30T00:09:35.176Z,0.00
2019-04-30T00:10:37.027Z,0.00
2019-04-30T00:11:36.300Z,0.00
2019-04-30T00:12:38.039Z,0.00
2019-04-30T00:13:35.873Z,0.00
2019-04-30T00:14:39.941Z,0.00
2019-04-30T00:15:35.691Z,0.00
2019-04-30T00:16:36.324Z,0.00
2019-04-30T00:17:35.883Z,0.00
2019-04-30T00:18:37.938Z,0.00
2019-04-30T00:19:35.901Z,0.00
2019-04-30T00:20:38.464Z,0.00
2019-04-30T00:21:36.099Z,0.00
2019-04-30T00:22:39.328Z,0.00
2019-04-30T00:23:35.985Z,0.00
2019-04-30T00:24:35.478Z,0.00
2019-04-30T00:25:35.190Z,0.00
2019-04-30T00:26:35.437Z,0.00
2019-04-30T00:27:35.632Z,0.00
2019-04-30T00:28:35.367Z,0.00
2019-04-30T00:29:35.571Z,0.00
2019-04-30T00:30:35.074Z,0.00
2019-04-30T00:31:34.972Z,0.00
2019-04-30T00:32:39.336Z,0.00
2019-04-30T00:33:35.381Z,0.00
2019-04-30T00:34:36.035Z,0.00
2019-04-30T00:35:35.524Z,0.00
2019-04-30T00:36:37.320Z,0.00
2019-04-30T00:37:35.262Z,0.00
2019-04-30T00:38:37.814Z,0.00
2019-04-30T00:39:35.518Z,0.00
2019-04-30T00:40:35.191Z,0.00
2019-04-30T00:41:35.354Z,0.00
2019-04-30T00:42:35.776Z,0.00
2019-04-30T00:43:35.343Z,0.00
2019-04-30T00:44:35.635Z,0.00
2019-04-30T00:45:35.377Z,0.00
2019-04-30T00:46:36.403Z,0.00
2019-04-30T00:47:35.163Z,0.00
2019-04-30T00:48:35.668Z,0.00
2019-04-30T00:49:35.044Z,0.00
2019-04-30T00:50:37.240Z,0.00
2019-04-30T00:51:35.479Z,0.00
2019-04-30T00:52:37.243Z,0.00
2019-04-30T00:53:35.922Z,0.00
2019-04-30T00:54:35.179Z,0.00
2019-04-30T00:55:40.221Z,0.00
2019-04-30T00:56:35.521Z,0.00
2019-04-30T00:57:37.269Z,0.00
2019-04-30T00:58:35.659Z,0.00
2019-04-30T00:59:35.040Z,0.00
2019-04-30T01:00:35.221Z,0.00
2019-04-30T01:01:39.234Z,0.00
2019-04-30T01:02:35.776Z,0.00
2019-04-30T01:03:35.210Z,0.00
2019-04-30T01:04:34.948Z,0.00
2019-04-30T01:05:35.375Z,0.00
2019-04-30T01:06:34.985Z,0.00
2019-04-30T01:07:35.444Z,0.00
2019-04-30T01:08:35.836Z,0.00
2019-04-30T01:09:35.407Z,0.00
2019-04-30T01:10:34.805Z,0.00
2019-04-30T01:11:35.543Z,0.00
2019-04-30T01:12:39.102Z,0.00
2019-04-30T01:13:34.318Z,0.00
2019-04-30T01:14:34.320Z,0.00
2019-04-30T01:15:34.312Z,0.00
2019-04-30T01:16:34.358Z,0.00
2019-04-30T01:17:34.302Z,0.00
2019-04-30T01:18:34.305Z,0.00
2019-04-30T01:19:34.300Z,0.00
2019-04-30T01:20:34.293Z,0.00
2019-04-30T01:21:34.316Z,0.00
2019-04-30T01:22:34.285Z,0.00
2019-04-30T01:23:34.278Z,0.00
2019-04-30T01:24:34.281Z,0.00
2019-04-30T01:25:34.310Z,0.00
2019-04-30T01:26:34.275Z,0.00
2019-04-30T01:27:34.269Z,0.00
2019-04-30T01:28:34.285Z,0.00
2019-04-30T01:29:41.454Z,0.00
2019-04-30T01:30:34.285Z,0.00
2019-04-30T01:31:37.565Z,0.00
2019-04-30T01:32:34.246Z,0.00
2019-04-30T01:33:35.632Z,0.00
2019-04-30T01:34:34.243Z,0.00
2019-04-30T01:35:34.265Z,0.00
2019-04-30T01:36:34.231Z,0.00
2019-04-30T01:37:34.229Z,0.00
2019-04-30T01:38:34.226Z,0.00
2019-04-30T01:39:34.225Z,0.00
2019-04-30T01:40:34.245Z,0.00
2019-04-30T01:41:34.214Z,0.00
2019-04-30T01:42:34.212Z,0.00
2019-04-30T01:43:34.722Z,0.00
2019-04-30T01:44:34.204Z,0.00
2019-04-30T01:45:34.229Z,0.00
2019-04-30T01:46:34.194Z,0.00
2019-04-30T01:47:34.198Z,0.00
2019-04-30T01:48:34.187Z,0.00
2019-04-30T01:49:41.948Z,0.00
2019-04-30T01:50:38.734Z,0.00
2019-04-30T01:51:34.180Z,0.00
2019-04-30T01:52:35.211Z,0.00
2019-04-30T01:53:34.167Z,0.00
2019-04-30T01:54:34.168Z,0.00
2019-04-30T01:55:34.188Z,0.00
2019-04-30T01:56:34.183Z,0.00
2019-04-30T01:57:34.154Z,0.00
2019-04-30T01:58:34.147Z,0.00
2019-04-30T01:59:34.157Z,0.00
2019-04-30T02:00:34.148Z,0.00
2019-04-30T02:01:34.163Z,0.00
2019-04-30T02:02:34.132Z,0.00
2019-04-30T02:03:34.135Z,0.00
2019-04-30T02:04:34.129Z,0.00
2019-04-30T02:05:34.123Z,0.00
2019-04-30T02:06:34.162Z,0.00
2019-04-30T02:07:34.123Z,0.00
2019-04-30T02:08:34.118Z,0.00
2019-04-30T02:09:34.115Z,0.00
2019-04-30T02:10:34.111Z,0.00
2019-04-30T02:11:34.127Z,0.00
2019-04-30T02:12:34.099Z,0.00
2019-04-30T02:13:34.502Z,0.00
2019-04-30T02:14:34.091Z,0.00
2019-04-30T02:15:34.088Z,0.00
2019-04-30T02:16:34.109Z,0.00
2019-04-30T02:17:34.075Z,0.00
2019-04-30T02:18:34.077Z,0.00
2019-04-30T02:19:34.065Z,0.00
2019-04-30T02:20:34.091Z,0.00
2019-04-30T02:21:34.059Z,0.00
2019-04-30T02:22:34.057Z,0.00
2019-04-30T02:23:34.059Z,0.00
2019-04-30T02:24:34.047Z,0.00
2019-04-30T02:25:34.072Z,0.00
2019-04-30T02:26:34.039Z,0.00
2019-04-30T02:27:34.036Z,0.00
2019-04-30T02:28:34.032Z,0.00
2019-04-30T02:29:34.027Z,0.00
2019-04-30T02:30:34.054Z,0.00
2019-04-30T02:31:34.022Z,0.00
2019-04-30T02:32:34.017Z,0.00
2019-04-30T02:33:34.010Z,0.00
2019-04-30T02:34:34.008Z,0.00
2019-04-30T02:35:34.026Z,0.00
2019-04-30T02:36:34.004Z,0.00
2019-04-30T02:37:33.993Z,0.00
2019-04-30T02:38:33.990Z,0.00
2019-04-30T02:39:33.989Z,0.00
2019-04-30T02:40:34.019Z,0.00
2019-04-30T02:41:34.004Z,0.00
2019-04-30T02:42:33.974Z,0.00
2019-04-30T02:43:33.965Z,0.00
2019-04-30T02:44:33.959Z,0.00
2019-04-30T02:45:33.959Z,0.00
2019-04-30T02:46:33.978Z,0.00
2019-04-30T02:47:33.946Z,0.00
2019-04-30T02:48:33.941Z,0.00
2019-04-30T02:49:33.941Z,0.00
2019-04-30T02:50:33.934Z,0.00
2019-04-30T02:51:33.975Z,0.00
2019-04-30T02:52:33.928Z,0.00
2019-04-30T02:53:33.922Z,0.00
2019-04-30T02:54:33.914Z,0.00
2019-04-30T02:55:33.907Z,0.00
2019-04-30T02:56:33.933Z,0.00
2019-04-30T02:57:33.902Z,0.00
2019-04-30T02:58:33.895Z,0.00
2019-04-30T02:59:33.895Z,0.00
2019-04-30T03:00:33.885Z,0.00
2019-04-30T03:01:33.908Z,0.00
2019-04-30T03:02:33.882Z,0.00
2019-04-30T03:03:33.872Z,0.00
2019-04-30T03:04:33.881Z,0.00
2019-04-30T03:05:33.867Z,0.00
2019-04-30T03:06:33.886Z,0.00
2019-04-30T03:07:33.847Z,0.00
2019-04-30T03:08:33.850Z,0.00
2019-04-30T03:09:33.843Z,0.00
2019-04-30T03:10:33.839Z,0.00
2019-04-30T03:11:33.880Z,0.00
2019-04-30T03:12:34.110Z,0.00
2019-04-30T03:13:34.193Z,0.00
2019-04-30T03:14:33.824Z,4.00
2019-04-30T03:15:33.807Z,4.00
2019-04-30T03:16:33.804Z,4.00
2019-04-30T03:17:33.829Z,4.00
2019-04-30T03:18:33.799Z,4.00
2019-04-30T03:19:33.794Z,8.00
2019-04-30T03:20:36.338Z,4.00
2019-04-30T03:21:33.819Z,8.00
2019-04-30T03:22:33.778Z,8.00
2019-04-30T03:23:33.770Z,8.00
2019-04-30T03:24:33.781Z,12.00
2019-04-30T03:25:33.762Z,12.00
2019-04-30T03:26:33.790Z,16.00
2019-04-30T03:27:33.753Z,20.00
2019-04-30T03:28:33.750Z,24.00
2019-04-30T03:29:33.775Z,28.00
2019-04-30T03:30:33.752Z,28.00
2019-04-30T03:31:33.744Z,36.00
2019-04-30T03:32:36.788Z,44.00
2019-04-30T03:33:33.734Z,48.00
2019-04-30T03:34:33.721Z,56.00
2019-04-30T03:35:33.712Z,64.00
2019-04-30T03:36:33.767Z,76.00
2019-04-30T03:37:33.698Z,88.00
2019-04-30T03:38:33.696Z,100.00
2019-04-30T03:39:34.298Z,116.00
2019-04-30T03:40:33.695Z,128.00
2019-04-30T03:41:33.680Z,144.00
2019-04-30T03:42:33.704Z,164.00
2019-04-30T03:43:33.685Z,188.00
2019-04-30T03:44:33.670Z,212.00
2019-04-30T03:45:33.660Z,232.00
2019-04-30T03:46:33.656Z,260.00
2019-04-30T03:47:33.684Z,288.00
2019-04-30T03:48:33.650Z,320.00
2019-04-30T03:49:33.639Z,352.00
2019-04-30T03:50:49.210Z,384.00
2019-04-30T03:51:33.629Z,424.00
2019-04-30T03:52:33.656Z,464.00
2019-04-30T03:53:33.617Z,508.00
2019-04-30T03:54:33.611Z,548.00
2019-04-30T03:55:33.608Z,596.00
2019-04-30T03:56:33.603Z,644.00
2019-04-30T03:57:33.632Z,692.00
2019-04-30T03:58:33.599Z,744.00
2019-04-30T03:59:33.593Z,796.00
2019-04-30T04:00:33.598Z,852.00
2019-04-30T04:01:33.577Z,912.00
2019-04-30T04:02:33.597Z,968.00
2019-04-30T04:03:33.566Z,1032.00
2019-04-30T04:04:33.561Z,1088.00
2019-04-30T04:05:33.565Z,1152.00
2019-04-30T04:06:33.578Z,1216.00
2019-04-30T04:07:33.541Z,1284.00
2019-04-30T04:08:33.540Z,1348.00
2019-04-30T04:09:33.533Z,1420.00
2019-04-30T04:10:33.527Z,1484.00
2019-04-30T04:11:33.569Z,1556.00
2019-04-30T04:12:33.520Z,1624.00
2019-04-30T04:13:33.518Z,1692.00
2019-04-30T04:14:33.509Z,1760.00
2019-04-30T04:15:33.532Z,1828.00
2019-04-30T04:16:33.506Z,1908.00
2019-04-30T04:17:33.522Z,1984.00
2019-04-30T04:18:33.488Z,2056.00
2019-04-30T04:19:33.485Z,2120.00
2019-04-30T04:20:33.473Z,2188.00
2019-04-30T04:21:33.468Z,2276.00
2019-04-30T04:22:33.489Z,2340.00
2019-04-30T04:23:33.471Z,2388.00
2019-04-30T04:24:33.458Z,2452.00
2019-04-30T04:25:33.451Z,2516.00
2019-04-30T04:26:33.442Z,2604.00
2019-04-30T04:27:33.478Z,2680.00
2019-04-30T04:28:33.435Z,2748.00
2019-04-30T04:29:33.431Z,2856.00
2019-04-30T04:30:33.451Z,2944.00
2019-04-30T04:31:33.419Z,2960.00
2019-04-30T04:32:33.414Z,3028.00
2019-04-30T04:33:33.432Z,3132.00
2019-04-30T04:34:33.402Z,3212.00
2019-04-30T04:35:33.398Z,3260.00
2019-04-30T04:36:33.389Z,3320.00
2019-04-30T04:37:33.426Z,3380.00
2019-04-30T04:38:33.384Z,3456.00
2019-04-30T04:39:33.415Z,3572.00
2019-04-30T04:40:33.371Z,3648.00
2019-04-30T04:41:33.368Z,3780.00
2019-04-30T04:42:33.365Z,3908.00
2019-04-30T04:43:33.387Z,3944.00
2019-04-30T04:44:33.355Z,3980.00
2019-04-30T04:45:33.354Z,3972.00
2019-04-30T04:46:33.343Z,4020.00
2019-04-30T04:47:33.355Z,4060.00
2019-04-30T04:48:33.336Z,4036.00
2019-04-30T04:49:33.326Z,4064.00
2019-04-30T04:50:33.324Z,4108.00
2019-04-30T04:51:38.441Z,4144.00
2019-04-30T04:52:33.355Z,4288.00
2019-04-30T04:53:33.312Z,4724.00
2019-04-30T04:54:33.328Z,5112.00
2019-04-30T04:55:33.299Z,5288.00
2019-04-30T04:56:33.309Z,5408.00
2019-04-30T04:57:33.293Z,5540.00
2019-04-30T04:58:33.324Z,5692.00
2019-04-30T04:59:33.287Z,5816.00
2019-04-30T05:00:33.300Z,5908.00
2019-04-30T05:01:33.276Z,6044.00
2019-04-30T05:02:33.271Z,6256.00
2019-04-30T05:03:33.264Z,6676.00
2019-04-30T05:04:33.311Z,7320.00
2019-04-30T05:05:33.252Z,7680.00
2019-04-30T05:06:33.255Z,7492.00
2019-04-30T05:07:33.247Z,6732.00
2019-04-30T05:08:33.243Z,6212.00
2019-04-30T05:09:33.263Z,6084.00
2019-04-30T05:10:33.233Z,6096.00
2019-04-30T05:11:33.227Z,6148.00
2019-04-30T05:12:33.224Z,6228.00
2019-04-30T05:13:34.694Z,6308.00
2019-04-30T05:14:33.251Z,6396.00
2019-04-30T05:15:33.212Z,6484.00
2019-04-30T05:16:33.220Z,6476.00
2019-04-30T05:17:33.200Z,6484.00
2019-04-30T05:18:33.204Z,6548.00
2019-04-30T05:19:33.222Z,6516.00
2019-04-30T05:20:33.195Z,6524.00
2019-04-30T05:21:42.025Z,6580.00
2019-04-30T05:22:33.185Z,6688.00
2019-04-30T05:23:33.182Z,6756.00
2019-04-30T05:24:33.217Z,6812.00
2019-04-30T05:25:33.177Z,6856.00
2019-04-30T05:26:33.178Z,6992.00
2019-04-30T05:27:33.174Z,7172.00
2019-04-30T05:28:33.168Z,7204.00
2019-04-30T05:29:33.192Z,7216.00
2019-04-30T05:30:33.164Z,7324.00
2019-04-30T05:31:33.160Z,7404.00
2019-04-30T05:32:33.160Z,7540.00
2019-04-30T05:33:33.167Z,7684.00
2019-04-30T05:34:33.188Z,7760.00
2019-04-30T05:35:33.148Z,7740.00
2019-04-30T05:36:33.153Z,7872.00
2019-04-30T05:37:33.146Z,7988.00
2019-04-30T05:38:33.141Z,7968.00
2019-04-30T05:39:33.168Z,8028.00
2019-04-30T05:40:33.165Z,8136.00
2019-04-30T05:41:33.138Z,8376.00
2019-04-30T05:42:33.134Z,8640.00
2019-04-30T05:43:33.134Z,8320.00
2019-04-30T05:44:33.125Z,7944.00
2019-04-30T05:45:33.778Z,7904.00
2019-04-30T05:46:33.127Z,7876.00
2019-04-30T05:47:33.125Z,7836.00
2019-04-30T05:48:33.121Z,7928.00
2019-04-30T05:49:33.117Z,8004.00
2019-04-30T05:50:33.151Z,8088.00
2019-04-30T05:51:33.118Z,8168.00
2019-04-30T05:52:33.115Z,8308.00
2019-04-30T05:53:33.109Z,8576.00
2019-04-30T05:54:33.115Z,8392.00
2019-04-30T05:55:33.134Z,8440.00
2019-04-30T05:56:33.106Z,8596.00
2019-04-30T05:57:33.101Z,8672.00
2019-04-30T05:58:33.102Z,8724.00
2019-04-30T05:59:33.102Z,8816.00
2019-04-30T06:00:33.125Z,8936.00
2019-04-30T06:01:33.093Z,9052.00
2019-04-30T06:02:34.094Z,9432.00
2019-04-30T06:03:33.435Z,10092.00
2019-04-30T06:04:33.093Z,10496.00
2019-04-30T06:05:33.117Z,10556.00
2019-04-30T06:06:33.700Z,10064.00
2019-04-30T06:07:33.085Z,9924.00
2019-04-30T06:08:33.086Z,9928.00
2019-04-30T06:09:34.076Z,9948.00
2019-04-30T06:10:33.112Z,9920.00
2019-04-30T06:11:33.086Z,9992.00
2019-04-30T06:12:33.085Z,10216.00
2019-04-30T06:13:33.076Z,10272.00
2019-04-30T06:14:33.079Z,10184.00
2019-04-30T06:15:33.121Z,10092.00
2019-04-30T06:16:33.074Z,10144.00
2019-04-30T06:17:33.098Z,9464.00
2019-04-30T06:18:33.070Z,10216.00
2019-04-30T06:19:33.070Z,10284.00
2019-04-30T06:20:33.076Z,10220.00
2019-04-30T06:21:33.099Z,10204.00
2019-04-30T06:22:33.069Z,10304.00
2019-04-30T06:23:33.062Z,10480.00
2019-04-30T06:24:33.065Z,10648.00
2019-04-30T06:25:45.858Z,10904.00
2019-04-30T06:26:33.090Z,10948.00
2019-04-30T06:27:33.085Z,11156.00
2019-04-30T06:28:33.065Z,11640.00
2019-04-30T06:29:33.058Z,12356.00
2019-04-30T06:30:33.065Z,13180.00
2019-04-30T06:31:37.366Z,13732.00
2019-04-30T06:32:33.084Z,13668.00
2019-04-30T06:33:33.058Z,13780.00
2019-04-30T06:34:33.055Z,14064.00
2019-04-30T06:35:33.058Z,14412.00
2019-04-30T06:36:33.058Z,15036.00
2019-04-30T06:37:33.083Z,16492.00
2019-04-30T06:38:33.054Z,17344.00
2019-04-30T06:39:33.055Z,16852.00
2019-04-30T06:40:33.054Z,17636.00
2019-04-30T06:41:33.055Z,18528.00
2019-04-30T06:42:33.083Z,19424.00
2019-04-30T06:43:33.054Z,19584.00
2019-04-30T06:44:37.321Z,18592.00
2019-04-30T06:45:33.052Z,18432.00
2019-04-30T06:46:33.053Z,18720.00
2019-04-30T06:47:33.536Z,19200.00
2019-04-30T06:48:33.058Z,19936.00
2019-04-30T06:49:33.059Z,20480.00
2019-04-30T06:50:33.063Z,21664.00
2019-04-30T06:51:33.059Z,21920.00
2019-04-30T06:52:33.091Z,20640.00
2019-04-30T06:53:33.058Z,18656.00
2019-04-30T06:54:33.063Z,17312.00
2019-04-30T06:55:33.064Z,16844.00
2019-04-30T06:56:33.065Z,15916.00
2019-04-30T06:57:33.091Z,15288.00
2019-04-30T06:58:33.069Z,15224.00
2019-04-30T06:59:33.063Z,15276.00
2019-04-30T07:00:35.520Z,16100.00
2019-04-30T07:01:33.071Z,17672.00
2019-04-30T07:02:33.100Z,18304.00
2019-04-30T07:03:33.109Z,18912.00
2019-04-30T07:04:33.083Z,19968.00
2019-04-30T07:05:33.077Z,20352.00
2019-04-30T07:06:37.034Z,19936.00
2019-04-30T07:07:39.021Z,18624.00
2019-04-30T07:08:39.614Z,18036.00
2019-04-30T07:09:39.827Z,17596.00
2019-04-30T07:10:33.084Z,12356.00
2019-04-30T07:11:33.095Z,17272.00
2019-04-30T07:12:34.174Z,17744.00
2019-04-30T07:13:33.129Z,18240.00
2019-04-30T07:14:33.097Z,17820.00
2019-04-30T07:15:33.097Z,18784.00
2019-04-30T07:16:33.099Z,20448.00
2019-04-30T07:17:33.099Z,20736.00
2019-04-30T07:18:33.131Z,19840.00
2019-04-30T07:19:50.089Z,12440.00
2019-04-30T07:20:34.116Z,12228.00
2019-04-30T07:21:36.474Z,18532.00
2019-04-30T07:22:39.981Z,18880.00
2019-04-30T07:23:33.136Z,17772.00
2019-04-30T07:24:33.147Z,18688.00
2019-04-30T07:25:33.113Z,16516.00
2019-04-30T07:26:33.116Z,13176.00
2019-04-30T07:27:33.119Z,18080.00
2019-04-30T07:28:46.569Z,18304.00
2019-04-30T07:29:33.120Z,18784.00
2019-04-30T07:30:33.121Z,19168.00
2019-04-30T07:31:33.124Z,19552.00
2019-04-30T07:32:33.128Z,11812.00
2019-04-30T07:33:33.128Z,12816.00
2019-04-30T07:34:37.020Z,20320.00
2019-04-30T07:35:33.132Z,20128.00
2019-04-30T07:36:45.291Z,20352.00
2019-04-30T07:37:33.164Z,20768.00
2019-04-30T07:38:35.845Z,21344.00
2019-04-30T07:39:33.505Z,22240.00
2019-04-30T07:40:33.143Z,22720.00
2019-04-30T07:41:33.145Z,23552.00
2019-04-30T07:42:38.041Z,24192.00
2019-04-30T07:43:33.149Z,24192.00
2019-04-30T07:44:36.376Z,26496.00
2019-04-30T07:45:33.153Z,27904.00
2019-04-30T07:46:35.267Z,28736.00
2019-04-30T07:47:33.163Z,30976.00
2019-04-30T07:48:33.160Z,30880.00
2019-04-30T07:49:46.882Z,32064.00
2019-04-30T07:50:33.664Z,32480.00
2019-04-30T07:51:37.736Z,32032.00
2019-04-30T07:52:34.393Z,31136.00
2019-04-30T07:53:33.178Z,33664.00
2019-04-30T07:54:33.209Z,36704.00
2019-04-30T07:55:33.181Z,34272.00
2019-04-30T07:56:37.675Z,40320.00
2019-04-30T07:57:33.232Z,37344.00
2019-04-30T07:58:33.187Z,35744.00
2019-04-30T07:59:33.219Z,35168.00
2019-04-30T08:00:33.198Z,34848.00
2019-04-30T08:01:33.206Z,33888.00
2019-04-30T08:02:37.964Z,32064.00
2019-04-30T08:03:33.368Z,30144.00
2019-04-30T08:04:33.242Z,29728.00
2019-04-30T08:05:33.223Z,29376.00
2019-04-30T08:06:33.291Z,29248.00
2019-04-30T08:07:33.271Z,27776.00
2019-04-30T08:08:33.274Z,24896.00
2019-04-30T08:09:39.697Z,22496.00
2019-04-30T08:10:33.891Z,21472.00
2019-04-30T08:11:34.521Z,21536.00
2019-04-30T08:12:36.756Z,21824.00
2019-04-30T08:13:33.835Z,21536.00
2019-04-30T08:14:33.290Z,21472.00
2019-04-30T08:15:33.286Z,21024.00
2019-04-30T08:16:33.268Z,20480.00
2019-04-30T08:17:33.270Z,19904.00
2019-04-30T08:18:33.276Z,19328.00
2019-04-30T08:19:33.273Z,19424.00
2019-04-30T08:20:33.306Z,19424.00
2019-04-30T08:21:33.305Z,19680.00
2019-04-30T08:22:33.290Z,20032.00
2019-04-30T08:23:37.001Z,20448.00
2019-04-30T08:24:33.310Z,20864.00
2019-04-30T08:25:33.358Z,20384.00
2019-04-30T08:26:33.317Z,20768.00
2019-04-30T08:27:33.324Z,21504.00
2019-04-30T08:28:33.327Z,21024.00
2019-04-30T08:29:33.359Z,21952.00
2019-04-30T08:30:33.423Z,21888.00
2019-04-30T08:31:33.349Z,20608.00
2019-04-30T08:32:33.352Z,20352.00
2019-04-30T08:33:33.359Z,19968.00
2019-04-30T08:34:33.395Z,20352.00
2019-04-30T08:35:33.396Z,21088.00
2019-04-30T08:36:33.379Z,21056.00
2019-04-30T08:37:33.383Z,21152.00
2019-04-30T08:38:33.394Z,21472.00
2019-04-30T08:39:33.396Z,21152.00
2019-04-30T08:40:33.431Z,21760.00
2019-04-30T08:41:33.413Z,21888.00
2019-04-30T08:42:34.604Z,21600.00
2019-04-30T08:43:33.423Z,22080.00
2019-04-30T08:44:33.431Z,22048.00
2019-04-30T08:45:34.876Z,21952.00
2019-04-30T08:46:33.447Z,22048.00
2019-04-30T08:47:33.451Z,22080.00
2019-04-30T08:48:49.913Z,21728.00
2019-04-30T08:49:33.735Z,22112.00
2019-04-30T08:50:33.534Z,22400.00
2019-04-30T08:51:33.683Z,22528.00
2019-04-30T08:52:33.509Z,23584.00
2019-04-30T08:53:34.050Z,25408.00
2019-04-30T08:54:34.704Z,26112.00
2019-04-30T08:55:33.561Z,27904.00
2019-04-30T08:56:33.524Z,30016.00
2019-04-30T08:57:33.531Z,30176.00
2019-04-30T08:58:33.540Z,29056.00
2019-04-30T08:59:33.553Z,28288.00
2019-04-30T09:00:33.584Z,29600.00
2019-04-30T09:01:33.566Z,28448.00
2019-04-30T09:02:33.580Z,27552.00
2019-04-30T09:03:33.585Z,28064.00
2019-04-30T09:04:33.592Z,27136.00
2019-04-30T09:05:33.628Z,27520.00
2019-04-30T09:06:33.652Z,28256.00
2019-04-30T09:07:33.620Z,29376.00
2019-04-30T09:08:33.629Z,30688.00
2019-04-30T09:09:33.636Z,31200.00
2019-04-30T09:10:33.678Z,33600.00
2019-04-30T09:11:43.002Z,37472.00
2019-04-30T09:12:33.669Z,38880.00
2019-04-30T09:13:33.676Z,38624.00
2019-04-30T09:14:33.685Z,37504.00
2019-04-30T09:15:33.725Z,35968.00
2019-04-30T09:16:33.768Z,34144.00
2019-04-30T09:17:33.719Z,33216.00
2019-04-30T09:18:33.725Z,33504.00
2019-04-30T09:19:33.743Z,34752.00
2019-04-30T09:20:33.772Z,35136.00
2019-04-30T09:21:33.782Z,36672.00
2019-04-30T09:22:33.768Z,37600.00
2019-04-30T09:23:43.961Z,36608.00
2019-04-30T09:24:33.789Z,35584.00
2019-04-30T09:25:33.825Z,36416.00
2019-04-30T09:26:33.833Z,35712.00
2019-04-30T09:27:33.832Z,34880.00
2019-04-30T09:28:33.829Z,36800.00
2019-04-30T09:29:33.838Z,33600.00
2019-04-30T09:30:33.882Z,33056.00
2019-04-30T09:31:33.906Z,35552.00
2019-04-30T09:32:33.869Z,36224.00
2019-04-30T09:33:33.879Z,40448.00
2019-04-30T09:34:33.892Z,40896.00
2019-04-30T09:35:33.936Z,41312.00
2019-04-30T09:36:33.919Z,45184.00
2019-04-30T09:37:33.923Z,43488.00
2019-04-30T09:38:33.936Z,42880.00
2019-04-30T09:39:33.949Z,46880.00
2019-04-30T09:40:33.986Z,45088.00
2019-04-30T09:41:33.969Z,44288.00
2019-04-30T09:42:33.984Z,46240.00
2019-04-30T09:43:33.990Z,48960.00
2019-04-30T09:44:34.001Z,48768.00
2019-04-30T09:45:34.042Z,47264.00
2019-04-30T09:46:34.026Z,49472.00
2019-04-30T09:47:34.066Z,49152.00
2019-04-30T09:48:34.054Z,50688.00
2019-04-30T09:49:34.065Z,55808.00
2019-04-30T09:50:34.732Z,57376.00
2019-04-30T09:51:34.269Z,57632.00
2019-04-30T09:52:36.124Z,57792.00
2019-04-30T09:53:34.142Z,59840.00
2019-04-30T09:54:34.114Z,59168.00
2019-04-30T09:55:34.166Z,60512.00
2019-04-30T09:56:34.151Z,63520.00
2019-04-30T09:57:34.159Z,60992.00
2019-04-30T09:58:34.168Z,62976.00
2019-04-30T09:59:34.182Z,68352.00
2019-04-30T10:00:34.225Z,71104.00
2019-04-30T10:01:34.211Z,71264.00
2019-04-30T10:02:34.215Z,71744.00
2019-04-30T10:03:34.968Z,71744.00
2019-04-30T10:04:34.377Z,70560.00
2019-04-30T10:05:34.284Z,69408.00
2019-04-30T10:06:39.502Z,68704.00
2019-04-30T10:07:34.275Z,73984.00
2019-04-30T10:08:46.102Z,72192.00
2019-04-30T10:09:34.309Z,73664.00
2019-04-30T10:10:34.424Z,75136.00
2019-04-30T10:11:34.331Z,80224.00
2019-04-30T10:12:34.344Z,91264.00
2019-04-30T10:13:34.350Z,94432.00
2019-04-30T10:14:34.370Z,93152.00
2019-04-30T10:15:34.410Z,97504.00
2019-04-30T10:16:34.391Z,98112.00
2019-04-30T10:17:34.402Z,106176.00
2019-04-30T10:18:34.421Z,105504.00
2019-04-30T10:19:34.429Z,107040.00
2019-04-30T10:20:34.470Z,107808.00
2019-04-30T10:21:34.452Z,107040.00
2019-04-30T10:22:34.464Z,103360.00
2019-04-30T10:23:34.479Z,112288.00
2019-04-30T10:24:34.492Z,117312.00
2019-04-30T10:25:34.533Z,109696.00
2019-04-30T10:26:34.516Z,117408.00
2019-04-30T10:27:34.528Z,120928.00
2019-04-30T10:28:34.574Z,101344.00
2019-04-30T10:29:34.556Z,100896.00
2019-04-30T10:30:34.657Z,108480.00
2019-04-30T10:31:34.609Z,102496.00
2019-04-30T10:32:34.597Z,112832.00
2019-04-30T10:33:34.609Z,119136.00
2019-04-30T10:34:34.626Z,108896.00
2019-04-30T10:35:34.661Z,109568.00
2019-04-30T10:36:34.675Z,111456.00
2019-04-30T10:37:34.662Z,110688.00
2019-04-30T10:38:34.678Z,111232.00
2019-04-30T10:39:34.693Z,112192.00
2019-04-30T10:40:34.729Z,112320.00
2019-04-30T10:41:34.742Z,105664.00
2019-04-30T10:42:34.956Z,105440.00
2019-04-30T10:43:34.742Z,112160.00
2019-04-30T10:44:34.754Z,114752.00
2019-04-30T10:45:34.793Z,110368.00
2019-04-30T10:46:34.805Z,108640.00
2019-04-30T10:47:34.797Z,112352.00
2019-04-30T10:48:34.807Z,107552.00
2019-04-30T10:49:34.831Z,113184.00
2019-04-30T10:50:34.886Z,113440.00
2019-04-30T10:51:34.874Z,106016.00
2019-04-30T10:52:34.866Z,111808.00
2019-04-30T10:53:34.875Z,118432.00
2019-04-30T10:54:34.887Z,107456.00
2019-04-30T10:55:34.932Z,96864.00
2019-04-30T10:56:34.942Z,105152.00
2019-04-30T10:57:34.931Z,107456.00
2019-04-30T10:58:34.938Z,114080.00
2019-04-30T10:59:34.955Z,114272.00
2019-04-30T11:00:34.997Z,107488.00
2019-04-30T11:01:35.008Z,108608.00
2019-04-30T11:02:35.000Z,110880.00
2019-04-30T11:03:35.017Z,117120.00
2019-04-30T11:04:35.029Z,116256.00
2019-04-30T11:05:35.082Z,112416.00
2019-04-30T11:06:35.083Z,118112.00
2019-04-30T11:07:35.072Z,117632.00
2019-04-30T11:08:35.081Z,118912.00
2019-04-30T11:09:35.095Z,107776.00
2019-04-30T11:10:35.220Z,103328.00
2019-04-30T11:11:35.147Z,106144.00
2019-04-30T11:12:35.136Z,120032.00
2019-04-30T11:13:35.152Z,120320.00
2019-04-30T11:14:35.165Z,110464.00
2019-04-30T11:15:35.179Z,110368.00
2019-04-30T11:16:35.220Z,110080.00
2019-04-30T11:17:35.343Z,108896.00
2019-04-30T11:18:35.374Z,108768.00
2019-04-30T11:19:35.366Z,113664.00
2019-04-30T11:20:35.312Z,112160.00
2019-04-30T11:21:35.483Z,112672.00
2019-04-30T11:22:35.443Z,112832.00
2019-04-30T11:23:35.391Z,109792.00
2019-04-30T11:24:37.997Z,113664.00
2019-04-30T11:25:35.708Z,110272.00
2019-04-30T11:26:35.735Z,112416.00
2019-04-30T11:27:35.924Z,117600.00
2019-04-30T11:28:35.517Z,114400.00
2019-04-30T11:29:35.467Z,110976.00
2019-04-30T11:30:35.682Z,110176.00
2019-04-30T11:31:35.656Z,118048.00
2019-04-30T11:32:35.640Z,114240.00
2019-04-30T11:33:35.556Z,114656.00
2019-04-30T11:34:35.449Z,114208.00
2019-04-30T11:35:35.465Z,113120.00
2019-04-30T11:36:35.506Z,109408.00
2019-04-30T11:37:35.521Z,108576.00
2019-04-30T11:38:35.509Z,114528.00
2019-04-30T11:39:36.474Z,114368.00
2019-04-30T11:40:37.959Z,111392.00
2019-04-30T11:41:35.574Z,116736.00
2019-04-30T11:42:35.602Z,111360.00
2019-04-30T11:43:35.583Z,112224.00
2019-04-30T11:44:35.604Z,112032.00
2019-04-30T11:45:35.610Z,114496.00
2019-04-30T11:46:35.654Z,117952.00
2019-04-30T11:47:35.671Z,117856.00
2019-04-30T11:48:35.655Z,120416.00
2019-04-30T11:49:35.665Z,122336.00
2019-04-30T11:50:36.474Z,122752.00
2019-04-30T11:51:35.723Z,119520.00
2019-04-30T11:52:35.740Z,113184.00
2019-04-30T11:53:35.737Z,122880.00
2019-04-30T11:54:35.736Z,126016.00
2019-04-30T11:55:35.757Z,121408.00
2019-04-30T11:56:38.297Z,126528.00
2019-04-30T11:57:35.811Z,126336.00
2019-04-30T11:58:35.803Z,120128.00
2019-04-30T11:59:35.816Z,120800.00
2019-04-30T12:00:35.826Z,121472.00
2019-04-30T12:01:35.864Z,118816.00
2019-04-30T12:02:35.879Z,120096.00
2019-04-30T12:03:35.939Z,119520.00
2019-04-30T12:04:35.876Z,122464.00
2019-04-30T12:05:35.892Z,122144.00
2019-04-30T12:06:35.937Z,114208.00
2019-04-30T12:07:35.929Z,115552.00
2019-04-30T12:08:35.936Z,123136.00
2019-04-30T12:09:35.959Z,116032.00
2019-04-30T12:10:36.494Z,120960.00
2019-04-30T12:11:36.004Z,125408.00